Time;durP1;ratioP1;P1;durP2;ratioP2;P2;SDS_P1;SDS_P2;PMS_P1;PMS_P2;Temp;Humidity;BMP_temperature;BMP_pressure;BME280_temperature;BME280_humidity;BME280_pressure;Samples;Min_cycle;Max_cycle;Signal;HPM_P1;HPM_P2
2023/10/06 00:01:31;;;;;;;7.93;5.30;;;;;;;14.12;98.27;101713.41;5112564;28;21076;-80
2023/10/06 00:03:59;;;;;;;9.83;5.07;;;;;;;14.12;98.08;101716.94;5113469;28;20294;-79
2023/10/06 00:06:27;;;;;;;9.13;5.10;;;;;;;14.15;97.79;101713.22;5116373;28;20254;-79
2023/10/06 00:08:57;;;;;;;9.50;5.80;;;;;;;14.16;97.59;101715.78;5104593;28;20583;-79
2023/10/06 00:11:28;;;;;;;10.40;4.90;;;;;;;14.18;96.67;101707.66;5107803;28;20236;-79
2023/10/06 00:14:00;;;;;;;6.33;4.30;;;;;;;14.15;96.63;101715.91;5108702;28;20249;-79
2023/10/06 00:16:27;;;;;;;8.40;4.27;;;;;;;14.13;96.82;101704.41;5114677;28;20251;-79
2023/10/06 00:18:57;;;;;;;7.80;4.70;;;;;;;14.12;97.02;101706.22;5113970;28;20225;-79
2023/10/06 00:21:28;;;;;;;7.30;4.50;;;;;;;14.10;96.66;101701.91;5112094;28;20199;-79
2023/10/06 00:23:56;;;;;;;8.60;4.63;;;;;;;14.10;96.60;101718.00;5117325;28;20247;-78
2023/10/06 00:26:26;;;;;;;7.77;4.17;;;;;;;14.08;96.98;101712.72;5109346;28;20220;-77
2023/10/06 00:28:52;;;;;;;7.37;4.03;;;;;;;14.06;96.89;101717.31;5117556;28;20209;-79
2023/10/06 00:31:19;;;;;;;4.90;3.63;;;;;;;14.05;96.38;101717.41;5114117;28;20212;-78
2023/10/06 00:33:45;;;;;;;9.67;4.43;;;;;;;14.07;96.68;101715.50;5114694;28;20204;-78
2023/10/06 00:36:13;;;;;;;7.00;4.70;;;;;;;14.05;96.30;101712.03;5110885;28;20822;-78
2023/10/06 00:38:42;;;;;;;6.67;4.03;;;;;;;14.01;96.26;101711.34;5112453;28;20207;-78
2023/10/06 00:41:14;;;;;;;6.43;3.90;;;;;;;13.96;96.09;101710.81;5114227;28;20217;-79
2023/10/06 00:43:43;;;;;;;8.70;4.33;;;;;;;13.92;96.03;101717.28;5111161;28;20294;-79
2023/10/06 00:46:11;;;;;;;5.97;4.47;;;;;;;13.89;95.97;101717.47;5109196;28;20227;-78
2023/10/06 00:48:39;;;;;;;7.77;4.17;;;;;;;13.86;95.81;101717.66;5117291;28;20205;-79
2023/10/06 00:51:10;;;;;;;10.10;3.80;;;;;;;13.84;96.08;101715.06;5115535;28;20212;-79
2023/10/06 00:53:37;;;;;;;9.97;3.97;;;;;;;13.81;95.73;101720.59;5108433;28;20195;-79
2023/10/06 00:56:10;;;;;;;9.00;4.17;;;;;;;13.79;95.71;101716.31;5110767;28;20223;-81
2023/10/06 00:58:41;;;;;;;7.13;3.97;;;;;;;13.75;96.05;101709.41;5110402;28;20206;-79
2023/10/06 01:01:08;;;;;;;9.57;4.27;;;;;;;13.72;96.02;101705.09;5112887;28;20196;-78
2023/10/06 01:03:39;;;;;;;11.93;4.10;;;;;;;13.70;96.64;101696.28;5110601;28;20566;-78
2023/10/06 01:06:12;;;;;;;8.67;4.27;;;;;;;13.74;96.12;101684.44;5106959;28;20284;-79
2023/10/06 01:08:38;;;;;;;9.53;4.00;;;;;;;13.69;96.30;101691.03;5110819;28;20208;-79
2023/10/06 01:11:11;;;;;;;9.93;3.97;;;;;;;13.64;96.76;101693.97;5111152;28;20199;-79
2023/10/06 01:13:52;;;;;;;10.50;4.40;;;;;;;13.63;96.29;101694.91;5111410;28;20712;-79
2023/10/06 01:16:19;;;;;;;6.27;3.67;;;;;;;13.63;96.23;101694.06;5111699;28;20219;-79
2023/10/06 01:18:49;;;;;;;8.20;3.93;;;;;;;13.60;96.39;101691.59;5111511;28;20210;-81
2023/10/06 01:21:17;;;;;;;7.27;4.20;;;;;;;13.56;96.76;101690.91;5109060;28;20221;-79
2023/10/06 01:23:48;;;;;;;7.33;3.63;;;;;;;13.54;96.93;101698.16;5112269;28;20783;-79
2023/10/06 01:26:14;;;;;;;7.53;4.40;;;;;;;13.50;96.78;101696.59;5106343;28;20459;-79
2023/10/06 01:28:45;;;;;;;6.17;3.87;;;;;;;13.48;96.68;101701.19;5110077;28;20305;-79
2023/10/06 01:31:12;;;;;;;9.00;5.00;;;;;;;13.48;97.22;101696.69;5111347;28;20478;-79
2023/10/06 01:33:39;;;;;;;7.00;4.43;;;;;;;13.48;97.01;101690.47;5113042;28;20207;-79
2023/10/06 01:36:13;;;;;;;11.90;4.73;;;;;;;13.49;96.55;101692.19;5106678;28;20226;-79
2023/10/06 01:38:42;;;;;;;9.50;4.60;;;;;;;13.46;96.78;101687.03;5106401;28;20209;-78
2023/10/06 01:41:10;;;;;;;6.50;4.27;;;;;;;13.46;96.77;101692.38;5106810;28;20633;-79
2023/10/06 01:43:38;;;;;;;7.03;4.10;;;;;;;13.45;96.64;101683.47;5112244;28;20199;-79
2023/10/06 01:46:07;;;;;;;9.57;4.53;;;;;;;13.41;96.90;101675.75;5112626;28;20234;-79
2023/10/06 01:48:36;;;;;;;7.60;4.30;;;;;;;13.42;97.52;101669.44;5107839;28;20287;-79
2023/10/06 01:51:08;;;;;;;8.40;4.33;;;;;;;13.37;97.02;101661.69;5114226;28;20211;-78
2023/10/06 01:53:39;;;;;;;8.43;4.90;;;;;;;13.36;97.36;101669.81;5110150;28;20199;-79
2023/10/06 01:56:07;;;;;;;11.53;5.00;;;;;;;13.34;97.46;101666.34;5110170;28;20211;-78
2023/10/06 01:58:36;;;;;;;12.10;5.00;;;;;;;13.32;97.45;101678.94;5106007;28;20226;-79
2023/10/06 02:01:05;;;;;;;8.70;4.70;;;;;;;13.30;98.01;101671.00;5112041;28;20203;-79
2023/10/06 02:03:38;;;;;;;6.40;4.47;;;;;;;13.28;97.80;101678.25;5106916;28;20750;-78
2023/10/06 02:06:04;;;;;;;7.80;5.07;;;;;;;13.26;98.08;101671.28;5114076;28;20235;-79
2023/10/06 02:08:32;;;;;;;10.37;5.10;;;;;;;13.26;97.76;101669.47;5109240;28;20942;-78
2023/10/06 02:11:01;;;;;;;9.20;4.80;;;;;;;13.26;97.44;101671.28;5101014;28;20262;-77
2023/10/06 02:13:29;;;;;;;9.20;4.53;;;;;;;13.22;97.47;101667.06;5105487;28;20208;-79
2023/10/06 02:15:58;;;;;;;9.00;4.97;;;;;;;13.19;97.86;101668.97;5102725;28;20305;-79
2023/10/06 02:18:35;;;;;;;9.63;5.87;;;;;;;13.17;97.72;101670.00;5111634;28;20222;-80
2023/10/06 02:21:06;;;;;;;10.23;5.37;;;;;;;13.17;97.76;101662.84;5104020;28;20238;-79
2023/10/06 02:23:37;;;;;;;11.07;5.80;;;;;;;13.17;97.72;101673.53;5105480;28;20204;-79
2023/10/06 02:26:06;;;;;;;9.10;5.40;;;;;;;13.15;97.27;101666.56;5106669;28;20800;-79
2023/10/06 02:28:33;;;;;;;12.00;5.43;;;;;;;13.15;97.58;101662.06;5112144;28;20655;-79
2023/10/06 02:31:04;;;;;;;9.83;5.90;;;;;;;13.15;97.60;101663.88;5105737;28;20271;-80
2023/10/06 02:33:32;;;;;;;9.57;5.20;;;;;;;13.13;97.20;101661.25;5106126;28;20196;-79
2023/10/06 02:36:00;;;;;;;8.50;5.27;;;;;;;13.10;97.39;101658.75;5108468;28;20216;-78
2023/10/06 02:38:34;;;;;;;11.90;5.43;;;;;;;13.08;97.73;101652.63;5106548;28;20582;-79
2023/10/06 02:41:01;;;;;;;9.93;5.50;;;;;;;13.08;97.28;101657.97;5108915;28;20195;-79
2023/10/06 02:43:30;;;;;;;15.27;6.17;;;;;;;13.04;97.60;101656.47;5108382;28;20466;-77
2023/10/06 02:46:04;;;;;;;11.60;5.60;;;;;;;13.00;97.95;101649.56;5106307;28;20262;-79
2023/10/06 02:48:33;;;;;;;11.40;5.07;;;;;;;12.99;97.65;101639.81;5110549;28;20238;-79
2023/10/06 02:51:01;;;;;;;8.97;4.93;;;;;;;12.98;97.84;101640.75;5110261;28;20219;-80
2023/10/06 02:53:35;;;;;;;8.63;5.40;;;;;;;12.97;97.91;101646.19;5113517;28;20207;-77
2023/10/06 02:56:07;;;;;;;9.20;4.77;;;;;;;12.94;97.38;101644.56;5107816;28;20221;-79
2023/10/06 02:58:34;;;;;;;7.73;4.83;;;;;;;12.91;97.70;101647.41;5101814;28;20628;-79
2023/10/06 03:01:04;;;;;;;9.27;4.93;;;;;;;12.88;98.15;101654.75;5109671;28;20212;-79
2023/10/06 03:03:33;;;;;;;11.30;5.27;;;;;;;12.85;98.04;101645.94;5106423;28;20199;-77
2023/10/06 03:06:07;;;;;;;7.60;4.77;;;;;;;12.82;98.33;101647.94;5104082;28;20224;-79
2023/10/06 03:08:35;;;;;;;9.67;4.90;;;;;;;12.78;98.18;101651.72;5107253;28;20204;-78
2023/10/06 03:11:03;;;;;;;12.33;5.30;;;;;;;12.77;98.67;101650.00;5111616;28;20212;-78
2023/10/06 03:13:32;;;;;;;10.07;4.87;;;;;;;12.74;99.16;101636.81;5108400;28;20203;-78
2023/10/06 03:15:59;;;;;;;12.37;4.90;;;;;;;12.73;98.93;101646.63;5106640;28;20247;-80
2023/10/06 03:18:26;;;;;;;9.50;5.20;;;;;;;12.69;99.06;101650.44;5111671;28;20200;-80
2023/10/06 03:21:00;;;;;;;10.00;4.97;;;;;;;12.67;98.67;101651.47;5099896;28;20208;-79
2023/10/06 03:23:31;;;;;;;11.57;4.83;;;;;;;12.63;99.14;101644.56;5111655;28;20200;-79
2023/10/06 03:25:58;;;;;;;12.73;5.10;;;;;;;12.62;99.13;101648.19;5109507;28;20276;-78
2023/10/06 03:28:36;;;;;;;11.43;5.20;;;;;;;12.58;99.02;101644.81;5106405;28;20196;-79
2023/10/06 03:31:09;;;;;;;8.70;4.73;;;;;;;12.57;98.90;101642.22;5106310;28;20203;-79
2023/10/06 03:33:36;;;;;;;7.50;4.40;;;;;;;12.55;98.71;101646.78;5109538;28;20200;-77
2023/10/06 03:36:04;;;;;;;6.53;4.40;;;;;;;12.55;99.29;101645.00;5109426;28;20223;-79
2023/10/06 03:38:36;;;;;;;8.40;3.60;;;;;;;12.55;99.19;101645.00;5111091;28;20219;-79
2023/10/06 03:41:18;;;;;;;8.43;3.97;;;;;;;12.57;98.61;101637.75;5105219;28;20286;-78
2023/10/06 03:43:49;;;;;;;8.43;3.60;;;;;;;12.51;99.36;101641.66;5104695;28;20214;-79
2023/10/06 03:46:18;;;;;;;7.87;3.70;;;;;;;12.51;99.38;101638.13;5110311;28;20310;-79
2023/10/06 03:48:45;;;;;;;8.53;3.57;;;;;;;12.52;98.95;101638.03;5107744;28;20203;-79
2023/10/06 03:51:14;;;;;;;8.80;3.50;;;;;;;12.47;99.15;101637.41;5071604;28;1066717;-78
2023/10/06 03:53:40;;;;;;;7.33;3.80;;;;;;;12.41;99.35;101647.56;5105183;28;20209;-77
2023/10/06 03:56:08;;;;;;;7.50;3.53;;;;;;;12.39;99.54;101646.78;5113924;28;20225;-79
2023/10/06 03:58:34;;;;;;;10.97;4.43;;;;;;;12.36;99.89;101646.97;5112153;28;20203;-79
2023/10/06 04:01:07;;;;;;;7.57;3.40;;;;;;;12.33;99.92;101640.00;5116066;28;20204;-79
2023/10/06 04:03:34;;;;;;;6.37;3.10;;;;;;;12.36;99.74;101633.63;5106445;28;20215;-79
2023/10/06 04:06:03;;;;;;;6.23;3.10;;;;;;;12.34;100.00;101625.69;5113517;28;20260;-78
2023/10/06 04:08:30;;;;;;;6.27;2.97;;;;;;;12.36;99.75;101631.78;5110092;28;20198;-80
2023/10/06 04:10:58;;;;;;;5.83;3.30;;;;;;;12.35;99.98;101632.75;5110637;28;20200;-78
2023/10/06 04:13:25;;;;;;;6.43;3.20;;;;;;;12.37;99.43;101640.66;5110437;28;20199;-78
2023/10/06 04:15:52;;;;;;;5.97;3.20;;;;;;;12.34;99.73;101647.06;5110085;28;20376;-79
2023/10/06 04:18:22;;;;;;;6.97;3.23;;;;;;;12.32;99.93;101656.09;5109909;28;20203;-78
2023/10/06 04:20:49;;;;;;;8.53;3.37;;;;;;;12.30;99.80;101656.19;5112419;28;20195;-78
2023/10/06 04:23:18;;;;;;;8.27;3.33;;;;;;;12.33;100.00;101633.78;5107238;28;20204;-78
2023/10/06 04:25:46;;;;;;;7.33;3.27;;;;;;;12.35;99.37;101637.25;5110337;28;20228;-76
2023/10/06 04:28:14;;;;;;;8.77;2.77;;;;;;;12.35;99.43;101632.75;5115637;28;20705;-78
2023/10/06 04:30:43;;;;;;;8.43;3.53;;;;;;;12.37;99.54;101638.00;5105133;28;20207;-77
2023/10/06 04:33:10;;;;;;;9.07;4.50;;;;;;;12.36;99.09;101650.47;5111740;28;20264;-78
2023/10/06 04:35:40;;;;;;;4.27;3.07;;;;;;;12.33;99.61;101647.16;5105432;28;20921;-79
2023/10/06 04:38:10;;;;;;;7.10;3.53;;;;;;;12.36;99.36;101637.13;5109033;28;20203;-76
2023/10/06 04:40:36;;;;;;;5.30;2.27;;;;;;;12.39;99.15;101623.59;5109040;28;20238;-79
2023/10/06 04:43:04;;;;;;;4.57;2.63;;;;;;;12.42;98.84;101617.22;5108831;28;20240;-78
2023/10/06 04:45:31;;;;;;;4.50;2.67;;;;;;;12.44;98.83;101620.69;5111561;28;20235;-79
2023/10/06 04:48:00;;;;;;;5.50;3.10;;;;;;;12.48;98.59;101617.75;5110591;28;20200;-78
2023/10/06 04:50:27;;;;;;;4.47;2.70;;;;;;;12.46;98.11;101616.13;5107987;28;20275;-78
2023/10/06 04:52:54;;;;;;;6.20;3.23;;;;;;;12.47;98.33;101613.38;5115116;28;20208;-79
2023/10/06 04:55:21;;;;;;;5.97;2.80;;;;;;;12.49;98.35;101613.28;5108275;28;20217;-76
2023/10/06 04:57:48;;;;;;;8.00;2.77;;;;;;;12.51;97.92;101617.59;5107383;28;20208;-77
2023/10/06 05:00:19;;;;;;;5.77;2.70;;;;;;;12.48;97.76;101609.75;5106593;28;20200;-78
2023/10/06 05:02:47;;;;;;;6.07;2.40;;;;;;;12.51;97.97;101606.06;5107019;28;20207;-77
2023/10/06 05:05:19;;;;;;;4.97;2.53;;;;;;;12.50;98.00;101597.16;5104903;28;20235;-79
2023/10/06 05:07:45;;;;;;;4.63;2.73;;;;;;;12.46;97.93;101603.63;5108730;28;20326;-78
2023/10/06 05:10:12;;;;;;;5.87;2.70;;;;;;;12.46;97.83;101594.75;5106873;28;20199;-77
2023/10/06 05:12:42;;;;;;;4.77;2.40;;;;;;;12.46;98.54;101590.28;5103815;28;20610;-77
2023/10/06 05:15:14;;;;;;;5.80;2.60;;;;;;;12.46;98.11;101571.56;5103690;28;20287;-78
2023/10/06 05:17:42;;;;;;;6.47;2.83;;;;;;;12.50;97.71;101573.13;5106874;28;20206;-77
2023/10/06 05:20:19;;;;;;;7.60;2.73;;;;;;;12.49;97.49;101581.22;5108551;28;20228;-78
2023/10/06 05:22:47;;;;;;;3.47;2.60;;;;;;;12.51;97.22;101584.69;5105972;28;20569;-79
2023/10/06 05:25:14;;;;;;;6.67;2.63;;;;;;;12.51;97.62;101582.88;5111876;28;20221;-76
2023/10/06 05:27:42;;;;;;;5.60;2.90;;;;;;;12.54;97.19;101580.97;5110796;28;20207;-77
2023/10/06 05:30:13;;;;;;;4.20;2.73;;;;;;;12.49;97.37;101566.06;5111099;28;20207;-77
2023/10/06 05:32:42;;;;;;;7.17;2.90;;;;;;;12.48;98.03;101575.00;5115580;28;20276;-79
2023/10/06 05:35:13;;;;;;;5.37;2.80;;;;;;;12.49;97.78;101582.09;5113268;28;20200;-78
2023/10/06 05:37:43;;;;;;;8.00;3.00;;;;;;;12.49;97.59;101597.25;5115526;28;20249;-79
2023/10/06 05:40:13;;;;;;;7.03;2.57;;;;;;;12.54;97.59;101602.34;5108353;28;20199;-78
2023/10/06 05:42:40;;;;;;;4.17;2.53;;;;;;;12.55;97.59;101612.91;5114400;28;20204;-79
2023/10/06 05:45:15;;;;;;;6.70;2.47;;;;;;;12.54;97.98;101623.72;5117355;28;20207;-78
2023/10/06 05:47:43;;;;;;;7.53;2.73;;;;;;;12.55;98.04;101631.63;5117273;28;20191;-79
2023/10/06 05:50:12;;;;;;;6.67;2.83;;;;;;;12.55;97.78;101623.59;5114414;28;20587;-79
2023/10/06 05:52:39;;;;;;;6.97;2.57;;;;;;;12.59;97.97;101625.16;5117405;28;20213;-77
2023/10/06 05:55:09;;;;;;;6.00;2.77;;;;;;;12.66;97.65;101617.69;5107689;28;20221;-78
2023/10/06 05:57:38;;;;;;;7.90;2.60;;;;;;;12.67;97.40;101622.94;5099061;28;20637;-78
2023/10/06 06:00:09;;;;;;;6.43;3.20;;;;;;;12.70;97.63;101635.28;5095902;28;20204;-80
2023/10/06 06:02:37;;;;;;;6.77;3.23;;;;;;;12.75;96.92;101647.41;5105252;28;20212;-78
2023/10/06 06:05:04;;;;;;;6.40;2.73;;;;;;;12.75;97.04;101647.41;5115066;28;20210;-79
2023/10/06 06:07:34;;;;;;;6.00;2.70;;;;;;;12.79;96.83;101634.72;5115269;28;20227;-79
2023/10/06 06:10:01;;;;;;;8.00;2.90;;;;;;;12.81;96.60;101617.66;5114365;28;20207;-79
2023/10/06 06:12:28;;;;;;;5.27;2.50;;;;;;;12.85;96.68;101602.31;5111938;28;20208;-79
2023/10/06 06:14:54;;;;;;;3.90;2.73;;;;;;;12.90;96.05;101592.19;5102899;28;20213;-80
2023/10/06 06:17:21;;;;;;;4.43;2.33;;;;;;;12.92;96.07;101587.63;5114847;28;20210;-79
2023/10/06 06:19:48;;;;;;;4.93;2.60;;;;;;;12.95;95.66;101584.78;5116661;28;20237;-79
2023/10/06 06:22:14;;;;;;;9.17;2.63;;;;;;;12.92;96.06;101590.28;5099388;28;20608;-79
2023/10/06 06:24:42;;;;;;;3.23;2.17;;;;;;;12.93;96.25;101597.38;5111044;28;20205;-79
2023/10/06 06:27:09;;;;;;;4.87;2.87;;;;;;;12.94;96.73;101604.44;5114482;28;20238;-80
2023/10/06 06:29:36;;;;;;;5.50;2.73;;;;;;;12.99;96.50;101605.03;5103452;28;20284;-78
2023/10/06 06:32:11;;;;;;;8.37;2.33;;;;;;;13.05;95.82;101599.34;5111220;28;20204;-78
2023/10/06 06:34:38;;;;;;;7.40;3.03;;;;;;;13.13;95.33;101583.69;5110856;28;20207;-79
2023/10/06 06:37:04;;;;;;;7.97;2.60;;;;;;;13.18;95.48;101591.50;5107820;28;20220;-77
2023/10/06 06:39:33;;;;;;;6.37;2.40;;;;;;;13.20;95.81;101595.81;5110600;28;20200;-80
2023/10/06 06:42:01;;;;;;;6.80;3.07;;;;;;;13.24;95.74;101592.94;5116037;28;20230;-79
2023/10/06 06:44:29;;;;;;;7.07;2.87;;;;;;;13.34;94.03;101588.75;5110567;28;20196;-78
2023/10/06 06:46:56;;;;;;;6.27;2.47;;;;;;;13.36;94.33;101593.06;5108434;28;20232;-79
2023/10/06 06:49:23;;;;;;;4.63;2.77;;;;;;;13.38;94.01;101588.50;5104696;28;20204;-78
2023/10/06 06:51:52;;;;;;;6.43;2.50;;;;;;;13.45;94.00;101581.78;5112767;28;20225;-78
2023/10/06 06:54:19;;;;;;;6.43;2.57;;;;;;;13.48;93.22;101591.47;5107471;28;20245;-79
2023/10/06 06:56:47;;;;;;;6.03;2.37;;;;;;;13.50;94.23;101602.94;5105066;28;20222;-80
2023/10/06 06:59:15;;;;;;;4.97;2.63;;;;;;;13.53;93.79;101592.91;5101852;28;20944;-79
2023/10/06 07:01:41;;;;;;;5.03;2.33;;;;;;;13.59;92.22;101594.38;5110362;28;20226;-80
2023/10/06 07:04:08;;;;;;;5.00;2.17;;;;;;;13.60;92.08;101588.06;5108585;28;20219;-80
2023/10/06 07:06:35;;;;;;;5.10;2.40;;;;;;;13.62;91.61;101588.78;5104434;28;20235;-78
2023/10/06 07:09:02;;;;;;;4.87;2.27;;;;;;;13.68;91.06;101585.75;5108965;28;20222;-78
2023/10/06 07:11:28;;;;;;;6.00;2.53;;;;;;;13.69;91.17;101595.50;5108681;28;20299;-79
2023/10/06 07:13:56;;;;;;;5.23;2.57;;;;;;;13.70;90.59;101586.53;5107008;28;20583;-77
2023/10/06 07:16:25;;;;;;;6.60;2.23;;;;;;;13.70;90.43;101573.13;5106866;28;20269;-78
2023/10/06 07:18:53;;;;;;;4.40;2.13;;;;;;;13.73;89.67;101583.66;5101715;28;20259;-78
2023/10/06 07:21:22;;;;;;;4.43;2.20;;;;;;;13.77;90.08;101581.66;5107435;28;20204;-78
2023/10/06 07:23:51;;;;;;;7.43;2.50;;;;;;;13.82;89.79;101587.56;5106639;28;20656;-80
2023/10/06 07:26:18;;;;;;;7.27;2.37;;;;;;;13.85;89.79;101579.34;5111317;28;20235;-79
2023/10/06 07:28:51;;;;;;;4.57;2.20;;;;;;;13.91;89.42;101581.66;5105212;28;20208;-80
2023/10/06 07:31:19;;;;;;;5.63;2.23;;;;;;;13.99;89.69;101581.16;5105862;28;20211;-79
2023/10/06 07:33:48;;;;;;;4.73;2.00;;;;;;;14.06;88.49;101588.72;5107301;28;20200;-77
2023/10/06 07:36:17;;;;;;;4.47;2.13;;;;;;;14.11;89.02;101594.66;5111550;28;20216;-78
2023/10/06 07:38:44;;;;;;;4.47;2.40;;;;;;;14.15;89.02;101585.44;5110618;28;20584;-78
2023/10/06 07:41:17;;;;;;;6.00;2.30;;;;;;;14.25;88.39;101581.25;5099786;28;20272;-78
2023/10/06 07:43:46;;;;;;;6.30;2.40;;;;;;;14.33;87.49;101578.06;5103912;28;20192;-78
2023/10/06 07:46:13;;;;;;;5.07;2.30;;;;;;;14.43;87.26;101563.16;5110493;28;20224;-78
2023/10/06 07:48:39;;;;;;;6.97;2.37;;;;;;;14.54;86.99;101557.94;5109704;28;20288;-79
2023/10/06 07:51:08;;;;;;;7.03;2.50;;;;;;;14.65;86.98;101561.75;5110730;28;20226;-79
2023/10/06 07:53:38;;;;;;;4.27;2.17;;;;;;;14.77;84.65;101552.91;5107259;28;20208;-80
2023/10/06 07:56:07;;;;;;;8.57;2.60;;;;;;;14.79;84.99;101551.84;5110661;28;20295;-79
2023/10/06 07:58:33;;;;;;;4.87;1.80;;;;;;;14.90;85.36;101561.84;5110136;28;20199;-79
2023/10/06 08:01:02;;;;;;;4.87;2.00;;;;;;;14.99;83.73;101545.13;5101165;28;20212;-78
2023/10/06 08:03:29;;;;;;;6.53;2.57;;;;;;;15.06;82.34;101538.38;5109909;28;20223;-79
2023/10/06 08:05:56;;;;;;;5.00;2.17;;;;;;;15.09;81.96;101535.50;5109282;28;20248;-78
2023/10/06 08:08:23;;;;;;;5.93;2.20;;;;;;;15.17;82.65;101534.97;5111040;28;20198;-78
2023/10/06 08:10:53;;;;;;;6.50;2.60;;;;;;;15.24;81.86;101534.44;5104499;28;20213;-79
2023/10/06 08:13:19;;;;;;;5.77;2.00;;;;;;;15.36;81.22;101539.94;5112265;28;20660;-78
2023/10/06 08:15:46;;;;;;;8.10;1.90;;;;;;;15.45;80.36;101533.91;5109088;28;20879;-79
2023/10/06 08:18:13;;;;;;;7.60;2.10;;;;;;;15.53;80.58;101539.63;5108278;28;20213;-80
2023/10/06 08:20:40;;;;;;;3.30;1.77;;;;;;;15.65;79.05;101527.19;5108735;28;20210;-79
2023/10/06 08:23:07;;;;;;;6.17;1.90;;;;;;;15.72;77.35;101520.44;5108188;28;20655;-78
2023/10/06 08:25:35;;;;;;;4.97;2.33;;;;;;;15.77;78.27;101516.41;5108978;28;20223;-80
2023/10/06 08:28:04;;;;;;;3.93;1.93;;;;;;;15.81;78.42;101509.00;5109681;28;20268;-79
2023/10/06 08:30:33;;;;;;;5.10;2.20;;;;;;;15.84;77.63;101509.66;5097247;28;20198;-79
2023/10/06 08:33:02;;;;;;;5.00;2.10;;;;;;;15.84;78.13;101509.66;5112957;28;20297;-79
2023/10/06 08:35:29;;;;;;;5.93;1.83;;;;;;;15.84;78.53;101512.34;5108788;28;20251;-79
2023/10/06 08:37:56;;;;;;;5.40;1.90;;;;;;;15.91;77.58;101507.41;5112039;28;20718;-79
2023/10/06 08:40:23;;;;;;;3.90;1.93;;;;;;;15.94;77.32;101507.19;5114362;28;20214;-78
2023/10/06 08:42:53;;;;;;;4.87;1.70;;;;;;;16.00;77.74;101505.84;5115222;28;20210;-81
2023/10/06 08:45:23;;;;;;;3.00;1.70;;;;;;;16.10;75.48;101496.19;5108154;28;20228;-81
2023/10/06 08:47:50;;;;;;;6.13;2.23;;;;;;;16.21;74.90;101482.81;5106538;28;20252;-78
2023/10/06 08:50:22;;;;;;;5.20;2.00;;;;;;;16.26;75.33;101504.84;5110398;28;20257;-79
2023/10/06 08:52:51;;;;;;;3.03;1.87;;;;;;;16.38;74.20;101511.13;5114741;28;20695;-79
2023/10/06 08:55:17;;;;;;;6.23;2.00;;;;;;;16.45;73.27;101499.81;5113307;28;20235;-78
2023/10/06 08:57:45;;;;;;;5.30;2.00;;;;;;;16.53;72.72;101504.59;5116212;28;20268;-78
2023/10/06 09:00:15;;;;;;;7.07;2.13;;;;;;;16.63;72.00;101506.53;5110269;28;20352;-78
2023/10/06 09:02:43;;;;;;;5.20;2.23;;;;;;;16.68;71.88;101506.16;5114885;28;20248;-78
2023/10/06 09:05:10;;;;;;;4.13;1.97;;;;;;;16.68;70.75;101503.47;5112610;28;20296;-78
2023/10/06 09:07:37;;;;;;;4.90;1.87;;;;;;;16.67;70.87;101504.44;5103906;28;20222;-78
2023/10/06 09:10:16;;;;;;;3.37;2.30;;;;;;;16.70;71.00;101482.69;5114541;28;20684;-80
2023/10/06 09:12:43;;;;;;;3.93;1.70;;;;;;;16.67;70.62;101464.97;5114603;28;20268;-81
2023/10/06 09:15:18;;;;;;;4.23;1.77;;;;;;;16.64;70.82;101477.81;5114832;28;20291;-80
2023/10/06 09:17:45;;;;;;;3.07;1.57;;;;;;;16.64;70.88;101462.53;5111332;28;20292;-80
2023/10/06 09:20:12;;;;;;;6.10;2.30;;;;;;;16.63;70.94;101468.03;5114021;28;20233;-78
2023/10/06 09:22:46;;;;;;;2.90;1.90;;;;;;;16.69;70.31;101464.00;5114776;28;20212;-78
2023/10/06 09:25:13;;;;;;;4.03;1.70;;;;;;;16.62;70.03;101461.75;5112739;28;20649;-78
2023/10/06 09:27:41;;;;;;;5.30;1.70;;;;;;;16.64;70.68;101469.75;5116472;28;20233;-81
2023/10/06 09:30:10;;;;;;;3.87;1.70;;;;;;;16.68;70.74;101465.81;5105395;28;20208;-80
2023/10/06 09:32:39;;;;;;;3.13;1.80;;;;;;;16.75;70.43;101493.97;5112119;28;20261;-78
2023/10/06 09:35:22;;;;;;;3.80;1.90;;;;;;;16.79;70.38;101487.41;5107088;28;20266;-78
2023/10/06 09:37:48;;;;;;;4.23;1.80;;;;;;;16.86;70.27;101496.69;5103218;28;20205;-79
2023/10/06 09:40:21;;;;;;;9.57;2.20;;;;;;;16.91;70.35;101499.91;5110540;28;20202;-78
2023/10/06 09:42:49;;;;;;;7.73;2.23;;;;;;;16.94;70.10;101498.81;5110078;28;20232;-79
2023/10/06 09:45:20;;;;;;;4.10;1.77;;;;;;;16.99;69.45;101500.19;5111405;28;20207;-78
2023/10/06 09:47:50;;;;;;;2.97;1.60;;;;;;;17.06;69.48;101487.09;5111737;28;20252;-79
2023/10/06 09:50:19;;;;;;;5.60;1.73;;;;;;;17.13;69.26;101482.97;5113201;28;20216;-79
2023/10/06 09:52:47;;;;;;;4.57;1.60;;;;;;;17.17;69.11;101475.53;5108323;28;20219;-79
2023/10/06 09:55:17;;;;;;;5.27;1.70;;;;;;;17.17;69.19;101486.28;5109652;28;20679;-79
2023/10/06 09:57:47;;;;;;;5.00;1.87;;;;;;;17.22;68.95;101487.63;5111672;28;20231;-79
2023/10/06 10:00:17;;;;;;;4.77;1.90;;;;;;;17.23;68.43;101480.41;5113693;28;20299;-81
2023/10/06 10:02:45;;;;;;;3.10;1.70;;;;;;;17.19;68.87;101476.25;5116000;28;20214;-80
2023/10/06 10:05:14;;;;;;;4.20;1.70;;;;;;;17.20;69.10;101473.44;5111126;28;20200;-77
2023/10/06 10:07:41;;;;;;;4.60;2.17;;;;;;;17.20;68.75;101478.81;5106535;28;20289;-78
2023/10/06 10:10:10;;;;;;;4.73;2.10;;;;;;;17.24;68.39;101469.53;5109998;28;20212;-78
2023/10/06 10:13:00;;;;;;;4.17;1.90;;;;;;;17.23;68.23;101472.34;5110502;28;20210;-78
2023/10/06 10:15:37;;;;;;;5.03;2.03;;;;;;;17.22;68.44;101476.84;5109699;28;20228;-78
2023/10/06 10:18:19;;;;;;;4.60;1.73;;;;;;;17.23;68.54;101475.88;5112601;28;20227;-78
2023/10/06 10:20:47;;;;;;;4.23;1.60;;;;;;;17.28;68.19;101471.00;5102319;28;20205;-79
2023/10/06 10:23:15;;;;;;;3.47;1.70;;;;;;;17.28;67.26;101454.00;5113712;28;20205;-78
2023/10/06 10:25:42;;;;;;;4.80;1.80;;;;;;;17.30;67.72;101469.06;5108792;28;20231;-78
2023/10/06 10:28:13;;;;;;;2.67;1.70;;;;;;;17.34;67.75;101469.69;5108348;28;20224;-79
2023/10/06 10:30:53;;;;;;;6.43;1.87;;;;;;;17.46;68.09;101459.75;5107976;28;20208;-80
2023/10/06 10:33:24;;;;;;;3.20;1.70;;;;;;;17.51;66.88;101447.66;5106235;28;20230;-80
2023/10/06 10:36:23;;;;;;;5.97;1.93;;;;;;;17.52;67.06;101457.44;5106236;28;20228;-80
2023/10/06 10:39:02;;;;;;;4.43;2.10;;;;;;;17.57;67.15;101443.59;5103301;28;20209;-79
2023/10/06 10:41:34;;;;;;;2.47;1.73;;;;;;;17.59;66.53;101445.19;5112671;28;20604;-79
2023/10/06 10:44:02;;;;;;;3.43;1.80;;;;;;;17.62;66.43;101438.69;5106065;28;20208;-78
2023/10/06 10:46:31;;;;;;;3.00;1.20;;;;;;;17.64;65.77;101434.94;5103400;28;20235;-77
2023/10/06 10:49:00;;;;;;;3.93;1.87;;;;;;;17.62;66.28;101419.84;5112807;28;20224;-77
2023/10/06 10:51:33;;;;;;;3.80;1.57;;;;;;;17.70;66.13;101433.59;5100020;28;20211;-78
2023/10/06 10:54:00;;;;;;;5.73;1.77;;;;;;;17.73;65.56;101425.28;5108628;28;20201;-80
2023/10/06 10:56:35;;;;;;;3.53;1.70;;;;;;;17.72;65.59;101431.63;5110085;28;20217;-80
2023/10/06 10:59:02;;;;;;;3.10;1.30;;;;;;;17.75;66.24;101427.81;5106586;28;20197;-77
2023/10/06 11:01:31;;;;;;;5.53;1.80;;;;;;;17.80;66.61;101429.16;5103901;28;20213;-77
2023/10/06 11:04:25;;;;;;;3.80;1.97;;;;;;;17.88;65.85;101420.47;5110912;28;20205;-78
2023/10/06 11:06:55;;;;;;;3.87;1.90;;;;;;;17.93;65.28;101421.78;5111551;28;20277;-78
2023/10/06 11:09:37;;;;;;;2.63;1.77;;;;;;;18.00;66.17;101397.88;5109028;28;20203;-78
2023/10/06 11:12:05;;;;;;;3.93;1.50;;;;;;;17.99;64.58;101399.72;5107392;28;20251;-78
2023/10/06 11:14:40;;;;;;;3.93;1.73;;;;;;;18.02;64.72;101407.56;5110672;28;20226;-78
2023/10/06 11:17:08;;;;;;;4.60;2.00;;;;;;;18.04;64.56;101400.22;5101554;28;20321;-77
2023/10/06 11:19:37;;;;;;;3.00;1.37;;;;;;;18.06;64.64;101400.09;5110905;28;20210;-78
2023/10/06 11:22:13;;;;;;;2.67;1.40;;;;;;;18.10;64.23;101401.53;5104570;28;20824;-79
2023/10/06 11:24:40;;;;;;;4.63;1.70;;;;;;;18.11;64.24;101389.75;5112149;28;20227;-78
2023/10/06 11:27:16;;;;;;;3.60;1.60;;;;;;;18.13;63.68;101397.72;5108963;28;20308;-78
2023/10/06 11:29:43;;;;;;;3.57;1.60;;;;;;;18.14;64.26;101394.03;5107873;28;20198;-78
2023/10/06 11:32:11;;;;;;;4.13;1.50;;;;;;;18.15;63.57;101395.75;5106154;28;20217;-79
2023/10/06 11:34:38;;;;;;;3.00;1.80;;;;;;;18.19;64.02;101387.28;5111556;28;20207;-80